Terminal Aerodrome Forecast
Issued by NWS Melbourne, FL

Home | Current Version | Previous Version | Text Only | Print | Product List | Glossary On
Versions: 1 2 3 4 5 6 7 8 9 10 11 12 13 14 15 16 17 18 19 20 21 22 23 24 25 26
000
FTUS42 KMLB 010500
TAFMCO
TAF
KMCO 010530Z 0106/0206 17003KT P6SM SCT250
     FM011500 20005KT P6SM SCT030 SCT250
     FM012000 21005KT P6SM VCTS BKN040CB
     FM020000 14006KT P6SM SCT040 BKN100 OVC120=

USA.gov is the U.S. government's official web portal to all federal, state and local government web resources and services.